Philippi, WV

2:23 AM EDT on July 31, 2015 (GMT -0400)
APRSWXNET | | Change Station
CLOSE
Current Station
Personal Weather Station
Location: Philippi, WV
Elevation: 1040 ft
Nearby Weather Stations

Elev 1040 ft 39.15 °N, 80.14 °W | Updated 26 minutes ago

Clear
Clear
60 °F
Feels Like 60 °F
N
0
Wind Variable Wind from NE
Gusts 0.0 mph

Today
High -- | Low -- °F
--% Chance of Precip.
Yesterday
High -- | Low -- °F
Precip. -- in
6:19 AM 8:33 PM
Full, 100% visible
Pressure 29.99 in
Visibility 10.0 miles
Clouds Scattered Clouds 6000 ft
Dew Point 59 °F
Humidity 96%
Rainfall in
Snow Depth Not available.
UV 0 out of 12
Pollen 4.80 out of 12
Air Quality Not available.
Flu Activity Not available.
METAR KCKB 310553Z AUTO 00000KT 10SM SCT060 17/16 A3003 RMK AO2 SLP153 T01720161 10267 20172 58001 TSNO

More Conditions Fewer Conditions

Pressure 29.99 in
Visibility 10.0 miles
Clouds Scattered Clouds 6000 ft
Dew Point 59 °F
Humidity 96%
Rainfall in
Snow Depth Not available.
UV 0 out of 12
Pollen 4.80 out of 12
Air Quality Not available.
Flu Activity Not available.
METAR KCKB 310553Z AUTO 00000KT 10SM SCT060 17/16 A3003 RMK AO2 SLP153 T01720161 10267 20172 58001 TSNO

More Conditions Fewer Conditions

10-Day Weather Forecast

×

Almanac

Astronomy

Jul. 31, 2015 Rise Set
Actual Time
Civil Twilight
Nautical Twilight
Astronomical Twilight
Moon
Length of Visible Light
Length of Day
Tomorrow will be .
, % of the Moon is Illuminated

Today's Extremes

State Highs State Lows

Community

WunderPhotos

Upload Photos

1,842,633 photos uploaded!

WunderBlogs® & News

Nearby

Air Quality

  Air Quality AQ Index Pollutant
Not available.

Snow Depth

Station Depth Elevation

Earthquake Activity

City Distance Mag. Time & Date
Minimum magnitude displayed is 2.5.

Coastal Water Temperatures

Place Temperature

Stations

Nearby Weather Stations

Station Location Temp. Windchill Dew Point Humidity Wind Precip. Elev Updated Type